Time;durP1;ratioP1;P1;durP2;ratioP2;P2;SDS_P1;SDS_P2;PMS_P1;PMS_P2;Temp;Humidity;BMP_temperature;BMP_pressure;BME280_temperature;BME280_humidity;BME280_pressure;Samples;Min_cycle;Max_cycle;Signal;HPM_P1;HPM_P2
2023/12/27 00:00:52;;;;;;;0.20;0.20;;;;;;;7.27;68.51;102177.50;5101824;28;20020;-79
2023/12/27 00:03:18;;;;;;;0.38;0.38;;;;;;;7.27;68.57;102174.84;5103822;28;20514;-79
2023/12/27 00:05:44;;;;;;;0.20;0.20;;;;;;;7.26;68.97;102173.09;5106054;28;20028;-79
2023/12/27 00:08:10;;;;;;;0.15;0.15;;;;;;;7.23;69.04;102179.19;5105461;28;20048;-79
2023/12/27 00:10:37;;;;;;;0.20;0.20;;;;;;;7.21;68.59;102177.41;5106888;28;20063;-80
2023/12/27 00:13:03;;;;;;;0.43;0.43;;;;;;;7.21;68.51;102166.84;5106524;28;20039;-79
2023/12/27 00:15:29;;;;;;;0.10;0.10;;;;;;;7.19;69.14;102177.38;5107243;28;20039;-78
2023/12/27 00:17:55;;;;;;;0.20;0.20;;;;;;;7.18;68.94;102172.97;5105370;28;20055;-79
2023/12/27 00:20:21;;;;;;;0.20;0.20;;;;;;;7.18;69.09;102174.69;5102275;28;20082;-79
2023/12/27 00:22:48;;;;;;;0.20;0.20;;;;;;;7.16;69.64;102174.69;5103282;28;20024;-79
2023/12/27 00:25:14;;;;;;;0.10;0.10;;;;;;;7.12;69.50;102171.09;5103242;28;20028;-80
2023/12/27 00:27:40;;;;;;;0.20;0.20;;;;;;;7.05;69.10;102166.63;5102440;28;20039;-79
2023/12/27 00:30:07;;;;;;;0.28;0.28;;;;;;;6.96;69.59;102161.19;5093030;28;20046;-79
2023/12/27 00:32:33;;;;;;;0.15;0.15;;;;;;;6.91;69.35;102160.25;5103905;28;20028;-79
2023/12/27 00:34:59;;;;;;;0.20;0.20;;;;;;;6.87;69.63;102172.47;5105872;28;20051;-79
2023/12/27 00:37:25;;;;;;;0.20;0.20;;;;;;;6.85;69.38;102174.19;5110299;28;20039;-79
2023/12/27 00:39:51;;;;;;;0.20;0.20;;;;;;;6.83;69.62;102164.47;5111002;28;20036;-79
2023/12/27 00:42:18;;;;;;;0.20;0.20;;;;;;;6.83;69.83;102157.47;5117903;28;20025;-78
2023/12/27 00:44:44;;;;;;;0.40;0.40;;;;;;;6.85;69.89;102165.41;5117073;28;20024;-80
2023/12/27 00:47:10;;;;;;;0.20;0.20;;;;;;;6.84;69.55;102161.00;5114300;28;20028;-80
2023/12/27 00:49:36;;;;;;;0.20;0.20;;;;;;;6.83;69.90;102159.22;5110965;28;20028;-79
2023/12/27 00:52:02;;;;;;;0.10;0.10;;;;;;;6.81;69.85;102167.09;5100168;28;20028;-79
2023/12/27 00:54:29;;;;;;;0.30;0.30;;;;;;;6.82;69.74;102174.16;5106645;28;20091;-81
2023/12/27 00:56:55;;;;;;;0.10;0.10;;;;;;;6.77;70.21;102168.78;5112242;28;20020;-81
2023/12/27 00:59:21;;;;;;;0.32;0.32;;;;;;;6.77;69.98;102166.16;5110908;28;20036;-79
2023/12/27 01:01:47;;;;;;;0.43;0.43;;;;;;;6.77;70.00;102166.16;5110414;28;20438;-81
2023/12/27 01:04:14;;;;;;;0.10;0.10;;;;;;;6.74;70.16;102160.84;5110539;28;20020;-81
2023/12/27 01:06:40;;;;;;;1.55;1.48;;;;;;;6.71;70.12;102150.25;5109032;28;20100;-79
2023/12/27 01:09:07;;;;;;;0.50;0.45;;;;;;;6.70;69.84;102148.47;5107525;28;20025;-79
2023/12/27 01:11:33;;;;;;;0.45;0.45;;;;;;;6.69;69.79;102145.81;5102526;28;20028;-79
2023/12/27 01:13:59;;;;;;;0.13;0.13;;;;;;;6.67;69.74;102151.06;5106391;28;20040;-80
2023/12/27 01:16:25;;;;;;;0.15;0.15;;;;;;;6.67;69.43;102137.00;5108397;28;20513;-79
2023/12/27 01:18:51;;;;;;;0.20;0.20;;;;;;;6.67;70.05;102137.91;5098275;28;20118;-79
2023/12/27 01:21:18;;;;;;;0.10;0.10;;;;;;;6.69;70.09;102141.44;5097998;28;20024;-78
2023/12/27 01:23:44;;;;;;;0.30;0.30;;;;;;;6.66;70.22;102141.38;5107072;28;20055;-77
2023/12/27 01:26:10;;;;;;;1.55;1.05;;;;;;;6.67;69.92;102140.53;5110674;28;20050;-78
2023/12/27 01:28:36;;;;;;;0.20;0.20;;;;;;;6.67;70.03;102140.53;5110640;28;20036;-79
2023/12/27 01:31:03;;;;;;;0.20;0.20;;;;;;;6.64;69.77;102138.72;5111731;28;20035;-79
2023/12/27 01:33:29;;;;;;;0.95;0.90;;;;;;;6.62;69.88;102150.09;5111979;28;20051;-79
2023/12/27 01:35:55;;;;;;;0.20;0.20;;;;;;;6.61;69.35;102153.59;5112054;28;20067;-81
2023/12/27 01:38:21;;;;;;;0.10;0.10;;;;;;;6.50;69.44;102155.16;5111642;28;20043;-80
2023/12/27 01:40:50;;;;;;;0.20;0.20;;;;;;;6.46;70.42;102159.47;5111436;28;20025;-80
2023/12/27 01:43:16;;;;;;;0.20;0.20;;;;;;;6.46;70.09;102165.59;5111068;28;20035;-80
2023/12/27 01:45:45;;;;;;;0.10;0.10;;;;;;;6.59;69.61;102160.56;5109522;28;20498;-81
2023/12/27 01:48:12;;;;;;;0.15;0.15;;;;;;;6.62;69.60;102163.28;5109988;28;20024;-81
2023/12/27 01:50:38;;;;;;;0.10;0.10;;;;;;;6.59;69.75;102155.28;5109194;28;20032;-82
2023/12/27 01:53:04;;;;;;;0.20;0.20;;;;;;;6.57;69.87;102152.66;5109397;28;20394;-80
2023/12/27 01:55:31;;;;;;;0.17;0.17;;;;;;;6.53;69.51;102144.66;5107576;28;20058;-81
2023/12/27 01:57:57;;;;;;;0.13;0.13;;;;;;;6.52;69.62;102140.25;5108446;28;20096;-79
2023/12/27 02:00:24;;;;;;;0.20;0.20;;;;;;;6.52;69.54;102142.88;5107841;28;20028;-80
2023/12/27 02:02:50;;;;;;;0.20;0.20;;;;;;;6.55;69.77;102142.94;5108214;28;20042;-79
2023/12/27 02:05:17;;;;;;;0.30;0.30;;;;;;;6.57;69.70;102142.13;5108428;28;20103;-80
2023/12/27 02:07:43;;;;;;;0.22;0.22;;;;;;;6.58;69.98;102137.72;5108347;28;20027;-79
2023/12/27 02:10:11;;;;;;;0.13;0.13;;;;;;;6.61;69.75;102135.16;5104952;28;20040;-78
2023/12/27 02:12:37;;;;;;;0.30;0.30;;;;;;;6.62;69.64;102142.19;5101130;28;20039;-80
2023/12/27 02:15:03;;;;;;;0.30;0.30;;;;;;;6.66;70.17;102145.78;5107443;28;20394;-79
2023/12/27 02:17:31;;;;;;;1.10;1.10;;;;;;;6.68;70.24;102150.22;5107409;28;20119;-79
2023/12/27 02:19:58;;;;;;;0.10;0.10;;;;;;;6.70;70.21;102145.84;5107372;28;20039;-81
2023/12/27 02:22:27;;;;;;;0.40;0.40;;;;;;;6.76;70.14;102140.66;5111090;28;20027;-81
2023/12/27 02:24:54;;;;;;;0.10;0.10;;;;;;;6.83;70.10;102125.88;5109921;28;20278;-80
2023/12/27 02:27:21;;;;;;;0.10;0.10;;;;;;;6.88;69.86;102136.47;5110086;28;20024;-81
2023/12/27 02:29:48;;;;;;;0.10;0.10;;;;;;;6.93;70.48;102132.19;5108581;28;20103;-80
2023/12/27 02:32:14;;;;;;;0.85;0.85;;;;;;;6.98;70.17;102130.50;5091327;28;20044;-81
2023/12/27 02:34:40;;;;;;;0.20;0.20;;;;;;;7.01;70.10;102127.88;5101072;28;20047;-81
2023/12/27 02:37:06;;;;;;;0.47;0.47;;;;;;;7.03;69.93;102126.19;5105241;28;20119;-81
2023/12/27 02:39:33;;;;;;;0.10;0.10;;;;;;;7.04;70.02;102112.16;5103688;28;20473;-81
2023/12/27 02:41:59;;;;;;;12.55;1.55;;;;;;;7.06;70.67;102112.16;5095706;28;20028;-81
2023/12/27 02:44:26;;;;;;;0.15;0.15;;;;;;;7.07;70.24;102109.53;5097468;28;20028;-81
2023/12/27 02:46:53;;;;;;;0.20;0.20;;;;;;;7.09;69.99;102110.47;5097782;28;20021;-79
2023/12/27 02:49:19;;;;;;;0.20;0.20;;;;;;;7.12;69.92;102110.50;5105063;28;20032;-81
2023/12/27 02:51:45;;;;;;;0.60;0.60;;;;;;;7.16;69.74;102102.66;5096657;28;20032;-81
2023/12/27 02:54:12;;;;;;;0.30;0.30;;;;;;;7.18;70.18;102100.91;5095907;28;20088;-81
2023/12/27 02:56:38;;;;;;;0.20;0.20;;;;;;;7.21;70.03;102082.50;5105323;28;20031;-80
2023/12/27 02:59:04;;;;;;;1.00;1.00;;;;;;;7.27;70.53;102088.72;5109138;28;20027;-78
2023/12/27 03:01:31;;;;;;;0.13;0.13;;;;;;;7.29;70.08;102087.00;5115617;28;20028;-81
2023/12/27 03:03:57;;;;;;;0.75;0.75;;;;;;;7.32;70.27;102077.38;5111277;28;20024;-81
2023/12/27 03:06:23;;;;;;;0.20;0.20;;;;;;;7.34;70.72;102079.19;5111147;28;20068;-81
2023/12/27 03:08:52;;;;;;;0.45;0.45;;;;;;;7.36;70.20;102058.09;5102009;28;20055;-80
2023/12/27 03:11:18;;;;;;;0.28;0.28;;;;;;;7.38;70.59;102059.88;5092342;28;20024;-81
2023/12/27 03:13:44;;;;;;;0.47;0.47;;;;;;;7.39;70.28;102056.38;5109243;28;20055;-80
2023/12/27 03:16:11;;;;;;;0.30;0.30;;;;;;;7.44;70.36;102052.06;5109269;28;20034;-80
2023/12/27 03:18:38;;;;;;;0.15;0.15;;;;;;;7.48;70.09;102046.78;5108131;28;20024;-81
2023/12/27 03:21:05;;;;;;;0.10;0.10;;;;;;;7.49;70.24;102046.84;5100774;28;20048;-79
2023/12/27 03:23:31;;;;;;;0.20;0.20;;;;;;;7.51;70.20;102039.81;5110537;28;20063;-80
2023/12/27 03:25:57;;;;;;;0.20;0.20;;;;;;;7.48;70.68;102030.97;5101290;28;20127;-81
2023/12/27 03:28:24;;;;;;;0.10;0.10;;;;;;;7.55;70.73;102028.47;5109405;28;20478;-79
2023/12/27 03:30:50;;;;;;;0.20;0.20;;;;;;;7.54;70.79;102028.41;5099964;28;20039;-80
2023/12/27 03:33:16;;;;;;;1.05;1.00;;;;;;;7.59;70.87;102029.38;5108291;28;20031;-80
2023/12/27 03:35:42;;;;;;;0.20;0.20;;;;;;;7.63;70.93;102017.97;5106465;28;20032;-79
2023/12/27 03:38:09;;;;;;;0.10;0.10;;;;;;;7.65;70.97;102018.00;5109445;28;20047;-80
2023/12/27 03:40:38;;;;;;;1.00;1.00;;;;;;;7.68;71.14;102016.28;5110670;28;20084;-80
2023/12/27 03:43:04;;;;;;;0.17;0.17;;;;;;;7.71;70.58;102000.50;5093637;28;20046;-80
2023/12/27 03:45:30;;;;;;;0.10;0.10;;;;;;;7.75;70.82;101998.75;5097253;28;20037;-80
2023/12/27 03:47:56;;;;;;;0.20;0.20;;;;;;;7.77;71.16;101995.25;5098828;28;20036;-79
2023/12/27 03:50:22;;;;;;;0.20;0.20;;;;;;;7.82;70.77;101992.66;5109972;28;20047;-81
2023/12/27 03:52:48;;;;;;;0.32;0.32;;;;;;;7.84;70.64;101987.41;5114283;28;20038;-81
2023/12/27 03:55:15;;;;;;;2.65;0.88;;;;;;;7.82;70.75;101991.81;5112045;28;20036;-80
2023/12/27 03:57:42;;;;;;;0.10;0.10;;;;;;;7.85;71.19;101983.91;5103085;28;20035;-80
2023/12/27 04:00:10;;;;;;;1.30;1.20;;;;;;;7.86;70.51;101978.66;5098022;28;20081;-80
2023/12/27 04:02:36;;;;;;;0.10;0.10;;;;;;;7.89;70.84;101980.44;5102512;28;20191;-80
2023/12/27 04:05:03;;;;;;;0.15;0.15;;;;;;;7.89;71.12;101972.53;5109638;28;20032;-80
2023/12/27 04:07:30;;;;;;;0.32;0.32;;;;;;;7.90;70.83;101969.91;5105482;28;20023;-80
2023/12/27 04:09:56;;;;;;;0.20;0.20;;;;;;;7.93;70.54;101966.41;5111492;28;20035;-80
2023/12/27 04:12:22;;;;;;;0.20;0.20;;;;;;;7.92;71.01;101962.88;5100918;28;20039;-81
2023/12/27 04:14:48;;;;;;;0.22;0.22;;;;;;;7.95;70.82;101956.75;5108084;28;20028;-80
2023/12/27 04:17:15;;;;;;;0.25;0.25;;;;;;;7.93;70.38;101954.06;5111202;28;20031;-81
2023/12/27 04:19:41;;;;;;;0.10;0.10;;;;;;;7.94;71.00;101949.69;5110571;28;20032;-80
2023/12/27 04:22:08;;;;;;;0.20;0.20;;;;;;;7.96;70.91;101939.16;5111013;28;20043;-81
2023/12/27 04:24:34;;;;;;;0.40;0.40;;;;;;;7.96;70.94;101926.81;5111163;28;20081;-79
2023/12/27 04:27:00;;;;;;;0.30;0.30;;;;;;;7.97;70.44;101927.72;5109205;28;20020;-80
2023/12/27 04:29:26;;;;;;;0.10;0.10;;;;;;;7.99;70.98;101918.94;5094313;28;20032;-81
2023/12/27 04:31:52;;;;;;;0.20;0.20;;;;;;;7.97;70.61;101923.31;5101396;28;20028;-79
2023/12/27 04:34:18;;;;;;;1.15;1.10;;;;;;;8.00;70.80;101920.72;5097501;28;20036;-81
2023/12/27 04:36:45;;;;;;;0.22;0.22;;;;;;;8.02;70.65;101920.72;5104467;28;20032;-80
2023/12/27 04:39:11;;;;;;;0.10;0.10;;;;;;;8.03;70.91;101922.50;5107426;28;20053;-81
2023/12/27 04:41:37;;;;;;;0.30;0.30;;;;;;;8.03;71.24;101923.38;5109724;28;20081;-82
2023/12/27 04:44:03;;;;;;;0.20;0.20;;;;;;;8.01;70.99;101925.13;5108978;28;20024;-81
2023/12/27 04:46:30;;;;;;;0.13;0.13;;;;;;;8.05;70.90;101931.28;5108432;28;20047;-79
2023/12/27 04:48:56;;;;;;;0.10;0.10;;;;;;;8.02;70.79;101921.59;5098512;28;20054;-81
2023/12/27 04:51:22;;;;;;;0.22;0.22;;;;;;;8.05;71.06;101915.44;5090983;28;20014;-79
2023/12/27 04:53:48;;;;;;;0.10;0.10;;;;;;;8.03;71.42;101922.50;5102174;28;20046;-80
2023/12/27 04:56:17;;;;;;;0.20;0.20;;;;;;;8.08;70.96;101913.72;5114351;28;20031;-79
2023/12/27 04:58:43;;;;;;;0.17;0.17;;;;;;;8.06;71.66;101914.59;5111487;28;20024;-80
2023/12/27 05:01:09;;;;;;;0.30;0.30;;;;;;;8.08;71.42;101899.66;5111140;28;20028;-80
2023/12/27 05:03:38;;;;;;;5.40;3.03;;;;;;;8.09;71.65;101893.50;5104185;28;20498;-79
2023/12/27 05:06:09;;;;;;;0.40;0.40;;;;;;;8.14;71.27;101896.16;5111215;28;20054;-79
2023/12/27 05:08:38;;;;;;;0.10;0.10;;;;;;;8.08;71.54;101884.69;5106207;28;20110;-79
2023/12/27 05:11:15;;;;;;;0.17;0.17;;;;;;;8.17;71.53;101875.94;5104290;28;20495;-79
2023/12/27 05:13:41;;;;;;;0.90;0.90;;;;;;;8.12;72.00;101875.03;5104228;28;20028;-78
2023/12/27 05:16:12;;;;;;;0.20;0.20;;;;;;;8.18;71.98;101874.22;5106008;28;20051;-79
2023/12/27 05:18:39;;;;;;;0.40;0.40;;;;;;;8.14;71.58;101870.66;5102167;28;20032;-77
2023/12/27 05:21:06;;;;;;;0.20;0.20;;;;;;;8.08;72.09;101858.28;5106681;28;20020;-78
2023/12/27 05:23:33;;;;;;;0.10;0.10;;;;;;;8.17;71.51;101852.19;5100058;28;20486;-79
2023/12/27 05:25:59;;;;;;;0.28;0.28;;;;;;;8.07;72.56;101839.81;5108828;28;20025;-80
2023/12/27 05:28:26;;;;;;;0.10;0.10;;;;;;;8.16;72.11;101846.91;5103191;28;20042;-79
2023/12/27 05:30:52;;;;;;;0.10;0.10;;;;;;;8.08;71.98;101837.19;5097892;28;20131;-78
2023/12/27 05:33:18;;;;;;;0.52;0.52;;;;;;;8.20;71.73;101831.09;5100321;28;20055;-79
2023/12/27 05:35:44;;;;;;;0.20;0.20;;;;;;;8.20;72.42;101827.56;5092218;28;20036;-79
2023/12/27 05:38:11;;;;;;;0.10;0.10;;;;;;;8.21;72.22;101827.59;5096883;28;20039;-79
2023/12/27 05:40:37;;;;;;;1.08;1.00;;;;;;;8.20;72.28;101830.19;5084587;28;20028;-80
2023/12/27 05:43:04;;;;;;;0.85;0.85;;;;;;;8.20;71.93;101832.84;5096943;28;20039;-80
2023/12/27 05:45:30;;;;;;;5.78;2.47;;;;;;;8.20;72.80;101835.47;5092583;28;20021;-80
2023/12/27 05:47:56;;;;;;;0.10;0.10;;;;;;;8.21;72.23;101842.53;5094660;28;20032;-81
2023/12/27 05:50:22;;;;;;;0.13;0.13;;;;;;;8.21;72.08;101831.97;5097090;28;20113;-80
2023/12/27 05:52:49;;;;;;;2.90;2.17;;;;;;;8.20;72.25;101830.19;5096727;28;20498;-80
2023/12/27 05:55:15;;;;;;;0.20;0.20;;;;;;;8.18;73.12;101826.69;5096343;28;20043;-81
2023/12/27 05:57:42;;;;;;;0.10;0.10;;;;;;;8.20;72.44;101824.91;5088043;28;20028;-81
2023/12/27 06:00:08;;;;;;;0.10;0.10;;;;;;;8.22;73.09;101815.25;5085193;28;20122;-81
2023/12/27 06:02:34;;;;;;;0.40;0.40;;;;;;;8.17;73.37;101804.66;5084717;28;20033;-81
2023/12/27 06:05:01;;;;;;;0.28;0.28;;;;;;;8.20;73.12;101809.97;5084955;28;20510;-81
2023/12/27 06:07:28;;;;;;;0.15;0.15;;;;;;;8.20;73.87;101809.09;5095944;28;20051;-81
2023/12/27 06:09:54;;;;;;;0.10;0.10;;;;;;;8.23;73.44;101809.13;5094674;28;20403;-80
2023/12/27 06:12:20;;;;;;;0.68;0.68;;;;;;;8.23;73.60;101806.47;5096324;28;20430;-80
2023/12/27 06:14:46;;;;;;;0.80;0.80;;;;;;;8.26;73.79;101801.19;5088373;28;20442;-81
2023/12/27 06:17:12;;;;;;;0.55;0.55;;;;;;;8.27;74.09;101789.75;5094374;28;20024;-80
2023/12/27 06:19:39;;;;;;;0.52;0.52;;;;;;;8.29;73.87;101782.75;5094792;28;20031;-81
2023/12/27 06:22:08;;;;;;;0.10;0.10;;;;;;;8.32;74.05;101780.09;5094853;28;20024;-81
2023/12/27 06:24:34;;;;;;;0.10;0.10;;;;;;;8.35;74.06;101781.88;5089818;28;20083;-80
2023/12/27 06:27:00;;;;;;;0.50;0.50;;;;;;;8.40;73.28;101769.59;5094227;28;20047;-81
2023/12/27 06:29:26;;;;;;;0.17;0.17;;;;;;;8.35;74.04;101769.56;5091256;28;20368;-81
2023/12/27 06:31:52;;;;;;;0.20;0.20;;;;;;;8.38;74.34;101759.00;5095922;28;20479;-79
2023/12/27 06:34:18;;;;;;;0.85;0.85;;;;;;;8.43;73.98;101757.25;5095723;28;20028;-80
2023/12/27 06:36:45;;;;;;;0.10;0.10;;;;;;;8.45;73.75;101741.44;5095727;28;20096;-80
2023/12/27 06:39:11;;;;;;;1.77;1.67;;;;;;;8.45;74.02;101736.16;5092354;28;20107;-80
2023/12/27 06:41:37;;;;;;;0.30;0.30;;;;;;;8.46;73.80;101732.69;5090641;28;20047;-80
2023/12/27 06:44:03;;;;;;;0.22;0.22;;;;;;;8.43;74.20;101732.63;5097825;28;20526;-80
2023/12/27 06:46:30;;;;;;;0.15;0.15;;;;;;;8.43;74.34;101728.19;5096868;28;20085;-78
2023/12/27 06:48:56;;;;;;;1.65;1.13;;;;;;;8.43;74.61;101717.63;5077880;28;20028;-77
2023/12/27 06:51:22;;;;;;;0.17;0.17;;;;;;;8.46;74.30;101718.53;5092641;28;20024;-80
2023/12/27 06:53:48;;;;;;;0.20;0.20;;;;;;;8.49;74.41;101715.94;5086722;28;20040;-80
2023/12/27 06:56:15;;;;;;;0.13;0.13;;;;;;;8.47;74.54;101710.66;5093731;28;20151;-80
2023/12/27 06:58:42;;;;;;;0.20;0.20;;;;;;;8.50;74.69;101720.34;5103455;28;20059;-80
2023/12/27 07:01:09;;;;;;;0.45;0.45;;;;;;;8.52;74.12;101715.94;5101482;28;20031;-81
2023/12/27 07:03:36;;;;;;;0.10;0.10;;;;;;;8.47;75.17;101718.56;5102464;28;20470;-81
2023/12/27 07:06:02;;;;;;;0.13;0.13;;;;;;;8.50;75.00;101725.63;5101734;28;20028;-80
2023/12/27 07:08:30;;;;;;;0.10;0.10;;;;;;;8.45;75.10;101719.41;5102194;28;20464;-80
2023/12/27 07:10:56;;;;;;;0.10;0.10;;;;;;;8.56;74.64;101718.59;5092908;28;20444;-80
2023/12/27 07:13:22;;;;;;;0.10;0.10;;;;;;;8.60;74.65;101718.59;5098322;28;20032;-80
2023/12/27 07:15:48;;;;;;;0.10;0.10;;;;;;;8.53;75.04;101707.16;5089584;28;20039;-78
2023/12/27 07:18:15;;;;;;;0.82;0.82;;;;;;;8.55;74.74;101706.28;5102191;28;20043;-80
2023/12/27 07:20:41;;;;;;;0.10;0.10;;;;;;;8.58;75.08;101710.69;5105169;28;20020;-81
2023/12/27 07:23:07;;;;;;;0.15;0.15;;;;;;;8.62;74.25;101701.88;5096130;28;20032;-80
2023/12/27 07:25:34;;;;;;;0.10;0.10;;;;;;;8.54;75.09;101698.34;5096229;28;20395;-80
2023/12/27 07:28:00;;;;;;;0.13;0.13;;;;;;;8.62;74.96;101701.88;5103745;28;20605;-80
2023/12/27 07:30:26;;;;;;;0.20;0.20;;;;;;;8.65;75.04;101695.72;5096170;28;20028;-80
2023/12/27 07:32:52;;;;;;;0.10;0.10;;;;;;;8.63;75.13;101698.34;5103764;28;20093;-80
2023/12/27 07:35:19;;;;;;;0.10;0.10;;;;;;;8.62;75.09;101685.16;5086110;28;20082;-81
2023/12/27 07:37:46;;;;;;;0.30;0.30;;;;;;;8.65;75.21;101683.41;5102733;28;20376;-79
2023/12/27 07:40:14;;;;;;;0.20;0.20;;;;;;;8.72;75.24;101682.53;5108859;28;20084;-80
2023/12/27 07:42:41;;;;;;;0.10;0.10;;;;;;;8.73;75.58;101680.75;5110942;28;20028;-81
2023/12/27 07:45:07;;;;;;;0.20;0.20;;;;;;;8.74;75.29;101686.03;5109816;28;20024;-80
2023/12/27 07:47:34;;;;;;;0.15;0.15;;;;;;;8.79;75.17;101679.91;5109559;28;20493;-81
2023/12/27 07:50:00;;;;;;;0.55;0.55;;;;;;;8.83;75.09;101687.81;5099082;28;20039;-81
2023/12/27 07:52:26;;;;;;;0.10;0.10;;;;;;;8.86;75.46;101679.00;5107920;28;20032;-81
2023/12/27 07:54:52;;;;;;;0.10;0.10;;;;;;;8.90;75.00;101688.72;5108213;28;20028;-81
2023/12/27 07:57:20;;;;;;;0.10;0.10;;;;;;;8.84;75.77;101680.78;5106950;28;20028;-81
2023/12/27 07:59:46;;;;;;;0.45;0.45;;;;;;;8.90;75.68;101680.78;5107307;28;20028;-82
2023/12/27 08:02:13;;;;;;;0.10;0.10;;;;;;;8.96;75.44;101674.59;5098451;28;20028;-81
2023/12/27 08:04:39;;;;;;;0.10;0.10;;;;;;;8.95;75.80;101663.16;5099614;28;20041;-80
2023/12/27 08:07:08;;;;;;;0.13;0.13;;;;;;;9.02;75.69;101658.75;5104238;28;20020;-80
2023/12/27 08:09:35;;;;;;;3.92;0.90;;;;;;;9.05;75.55;101659.63;5106676;28;20078;-81
2023/12/27 08:12:02;;;;;;;0.20;0.20;;;;;;;9.01;76.08;101656.97;5103454;28;20472;-81
2023/12/27 08:14:28;;;;;;;0.10;0.10;;;;;;;9.13;75.36;101648.16;5105465;28;20024;-81
2023/12/27 08:16:55;;;;;;;0.10;0.10;;;;;;;9.10;75.94;101642.88;5107644;28;20035;-79
2023/12/27 08:19:21;;;;;;;0.20;0.20;;;;;;;9.12;76.02;101638.47;5107601;28;20024;-79
2023/12/27 08:21:47;;;;;;;0.55;0.55;;;;;;;9.15;76.16;101627.91;5110886;28;20091;-78
2023/12/27 08:24:13;;;;;;;0.10;0.10;;;;;;;9.15;75.94;101630.56;5112621;28;20035;-81
2023/12/27 08:26:39;;;;;;;0.10;0.10;;;;;;;9.24;75.83;101619.94;5111186;28;20047;-78
2023/12/27 08:29:06;;;;;;;0.20;0.20;;;;;;;9.25;76.01;101608.50;5106997;28;20032;-79
2023/12/27 08:31:32;;;;;;;0.20;0.20;;;;;;;9.27;75.93;101614.66;5109959;28;20028;-83
2023/12/27 08:33:59;;;;;;;0.10;0.10;;;;;;;9.29;76.08;101607.59;5109697;28;20068;-82
2023/12/27 08:36:29;;;;;;;0.38;0.38;;;;;;;9.32;76.36;101599.66;5109325;28;20048;-82
2023/12/27 08:38:55;;;;;;;0.30;0.30;;;;;;;9.34;75.87;101597.00;5101898;28;20063;-82
2023/12/27 08:41:24;;;;;;;0.30;0.30;;;;;;;9.28;76.44;101592.59;5110278;28;20035;-80
2023/12/27 08:43:52;;;;;;;0.20;0.20;;;;;;;9.43;76.56;101601.38;5102329;28;20024;-82
2023/12/27 08:46:20;;;;;;;0.40;0.40;;;;;;;9.45;76.49;101604.94;5111131;28;20088;-81
2023/12/27 08:48:47;;;;;;;0.10;0.10;;;;;;;9.49;76.54;101606.66;5109254;28;20080;-82
2023/12/27 08:51:13;;;;;;;2.55;0.75;;;;;;;9.51;76.52;101600.47;5108032;28;20036;-81
2023/12/27 08:53:39;;;;;;;0.40;0.40;;;;;;;9.55;76.64;101585.47;5109155;28;20064;-82
2023/12/27 08:56:06;;;;;;;0.20;0.20;;;;;;;9.54;76.78;101576.69;5106296;28;20036;-82
2023/12/27 08:58:33;;;;;;;0.10;0.10;;;;;;;9.60;76.59;101577.53;5101298;28;20149;-82
2023/12/27 09:01:00;;;;;;;0.10;0.10;;;;;;;9.63;76.71;101581.06;5107897;28;20034;-82
2023/12/27 09:03:26;;;;;;;0.50;0.50;;;;;;;9.64;76.70;101574.84;5107056;28;20103;-82
2023/12/27 09:05:52;;;;;;;0.38;0.25;;;;;;;9.63;77.08;101573.13;5101605;28;20035;-81
2023/12/27 09:08:18;;;;;;;0.10;0.10;;;;;;;9.64;77.13;101563.41;5090731;28;20039;-82
2023/12/27 09:10:44;;;;;;;0.20;0.20;;;;;;;9.68;77.11;101559.84;5107600;28;20032;-82
2023/12/27 09:13:11;;;;;;;0.20;0.20;;;;;;;9.76;76.97;101551.84;5100073;28;20024;-79
2023/12/27 09:15:37;;;;;;;0.47;0.47;;;;;;;9.80;77.00;101558.91;5108998;28;20111;-81
2023/12/27 09:18:03;;;;;;;0.13;0.13;;;;;;;9.84;77.15;101545.66;5099368;28;20025;-78
2023/12/27 09:20:29;;;;;;;0.35;0.35;;;;;;;9.88;77.10;101557.09;5106446;28;20027;-82
2023/12/27 09:22:56;;;;;;;0.30;0.30;;;;;;;9.93;77.12;101560.63;5106750;28;20043;-82
2023/12/27 09:25:22;;;;;;;0.47;0.47;;;;;;;9.96;77.30;101555.28;5107038;28;20032;-82
2023/12/27 09:27:48;;;;;;;1.38;0.85;;;;;;;10.00;77.01;101562.31;5099883;28;20021;-82
2023/12/27 09:30:14;;;;;;;1.38;1.27;;;;;;;10.08;76.67;101558.75;5104510;28;20046;-81
2023/12/27 09:32:43;;;;;;;0.30;0.30;;;;;;;10.03;77.15;101564.06;5107718;28;20031;-80
2023/12/27 09:35:09;;;;;;;0.43;0.43;;;;;;;10.13;76.67;101555.19;5096944;28;20116;-80
2023/12/27 09:37:38;;;;;;;0.20;0.20;;;;;;;10.17;76.95;101537.50;5103597;28;20032;-81
2023/12/27 09:40:05;;;;;;;0.20;0.20;;;;;;;10.17;77.13;101532.22;5105497;28;20043;-80
2023/12/27 09:42:33;;;;;;;0.57;0.57;;;;;;;10.21;77.27;101523.34;5106367;28;20043;-81
2023/12/27 09:45:02;;;;;;;0.10;0.10;;;;;;;10.16;77.33;101526.03;5106090;28;20048;-81
2023/12/27 09:47:30;;;;;;;0.10;0.10;;;;;;;10.14;77.82;101511.94;5106671;28;20167;-80
2023/12/27 09:49:58;;;;;;;0.20;0.20;;;;;;;10.11;77.80;101505.78;5096978;28;20490;-82
2023/12/27 09:52:24;;;;;;;0.20;0.20;;;;;;;10.17;77.95;101506.59;5096256;28;20104;-83
2023/12/27 09:54:51;;;;;;;0.20;0.20;;;;;;;10.17;77.98;101505.72;5095814;28;20035;-81
2023/12/27 09:57:18;;;;;;;0.20;0.20;;;;;;;10.17;78.28;101511.03;5103458;28;20035;-81
2023/12/27 09:59:47;;;;;;;0.20;0.20;;;;;;;10.29;77.56;101513.59;5097459;28;20073;-81
2023/12/27 10:02:17;;;;;;;0.10;0.10;;;;;;;10.29;77.58;101508.28;5109902;28;20020;-80
2023/12/27 10:07:45;;;;;;;0.28;0.28;;;;;;;10.35;77.50;101508.22;5111456;27;1749454;-81
2023/12/27 10:10:12;;;;;;;0.20;0.20;;;;;;;10.36;78.10;101517.94;5140355;27;20031;-81
2023/12/27 10:12:40;;;;;;;0.85;0.85;;;;;;;10.36;77.90;101519.72;5137280;28;20083;-81
2023/12/27 10:15:09;;;;;;;1.13;1.08;;;;;;;10.43;78.37;101516.16;5136597;27;20027;-81
2023/12/27 10:17:35;;;;;;;0.30;0.30;;;;;;;10.47;78.10;101498.44;5129583;27;20134;-82
2023/12/27 10:20:02;;;;;;;0.45;0.45;;;;;;;10.41;78.11;101498.50;5114082;28;20024;-82
2023/12/27 10:22:29;;;;;;;0.30;0.30;;;;;;;10.50;78.01;101499.31;5120729;28;20104;-85
2023/12/27 10:24:56;;;;;;;0.10;0.10;;;;;;;10.54;78.32;101488.66;5130192;28;20027;-82
2023/12/27 10:27:22;;;;;;;0.20;0.20;;;;;;;10.55;78.03;101485.13;5126265;27;20055;-81
2023/12/27 10:29:48;;;;;;;0.10;0.10;;;;;;;10.57;78.16;101478.91;5120374;28;20036;-83
2023/12/27 10:32:17;;;;;;;0.20;0.20;;;;;;;10.59;78.14;101484.19;5119493;28;20099;-83
2023/12/27 10:34:43;;;;;;;0.45;0.45;;;;;;;10.65;78.32;101473.53;5122076;28;20035;-82
2023/12/27 10:37:12;;;;;;;0.20;0.20;;;;;;;10.70;77.99;101458.47;5137476;28;20016;-81
2023/12/27 10:39:44;;;;;;;0.13;0.13;;;;;;;10.75;78.04;101445.16;5124909;28;20058;-82
2023/12/27 10:42:13;;;;;;;0.17;0.17;;;;;;;10.81;78.65;101439.78;5124724;28;20019;-83
2023/12/27 10:44:39;;;;;;;0.10;0.10;;;;;;;10.74;78.85;101448.72;5132011;28;20123;-83
2023/12/27 10:47:11;;;;;;;0.17;0.17;;;;;;;10.80;78.71;101451.28;5131666;28;20050;-83
2023/12/27 10:49:42;;;;;;;0.20;0.20;;;;;;;10.90;78.19;101449.41;5123026;28;20114;-82
2023/12/27 10:52:09;;;;;;;0.10;0.10;;;;;;;10.91;78.56;101457.34;5122393;28;20563;-83
2023/12/27 10:54:42;;;;;;;0.10;0.10;;;;;;;10.94;78.18;101452.03;5121184;28;20072;-82
2023/12/27 10:57:14;;;;;;;0.22;0.22;;;;;;;10.96;78.69;101460.81;5128450;28;20027;-82
2023/12/27 10:59:41;;;;;;;0.20;0.20;;;;;;;10.96;78.97;101462.59;5130731;28;20038;-82
2023/12/27 11:02:09;;;;;;;0.15;0.15;;;;;;;11.07;78.03;101452.75;5118637;28;20437;-82
2023/12/27 11:04:39;;;;;;;0.10;0.10;;;;;;;11.15;78.10;101434.06;5118767;28;20032;-82
2023/12/27 11:07:06;;;;;;;0.20;0.20;;;;;;;11.22;77.92;101435.75;5119058;28;20039;-82
2023/12/27 11:09:36;;;;;;;0.10;0.10;;;;;;;11.29;77.81;101426.81;5117378;28;20020;-81
2023/12/27 11:12:09;;;;;;;0.10;0.10;;;;;;;11.26;77.39;101410.06;5118553;27;20016;-82
2023/12/27 11:14:37;;;;;;;0.10;0.10;;;;;;;11.27;77.70;101410.03;5125642;28;20043;-82
2023/12/27 11:17:08;;;;;;;0.10;0.10;;;;;;;11.33;77.80;101396.69;5113733;28;20028;-83
2023/12/27 11:19:35;;;;;;;0.13;0.13;;;;;;;11.40;77.75;101393.94;5108624;28;20023;-82
2023/12/27 11:22:01;;;;;;;0.40;0.40;;;;;;;11.42;77.16;101408.09;5108568;28;20434;-83
2023/12/27 11:24:28;;;;;;;0.75;0.75;;;;;;;11.43;77.71;101396.56;5118046;28;20027;-82
2023/12/27 11:27:02;;;;;;;0.10;0.10;;;;;;;11.50;77.15;101403.53;5119847;28;20039;-82
2023/12/27 11:29:29;;;;;;;0.30;0.30;;;;;;;11.51;76.99;101392.00;5116925;28;20030;-83
2023/12/27 11:31:58;;;;;;;0.10;0.10;;;;;;;11.52;77.35;101400.88;5116024;28;20084;-83